Time;durP1;ratioP1;P1;durP2;ratioP2;P2;SDS_P1;SDS_P2;PMS_P1;PMS_P2;Temp;Humidity;BMP_temperature;BMP_pressure;BME280_temperature;BME280_humidity;BME280_pressure;Samples;Min_cycle;Max_cycle;Signal;HPM_P1;HPM_P2
2022/01/06 00:03:36;;;;;;;1.33;0.30;;;4.20;99.90;;;;;;20886064;28;20055;-45
2022/01/06 00:13:51;;;;;;;1.95;0.40;;;4.20;99.90;;;;;;20887598;28;20044;-45
2022/01/06 00:23:52;;;;;;;1.08;0.50;;;4.10;99.90;;;;;;20882351;28;20047;-44
2022/01/06 00:33:53;;;;;;;0.80;0.30;;;3.90;99.90;;;;;;20866130;28;20037;-45
2022/01/06 00:43:55;;;;;;;0.52;0.03;;;3.70;99.90;;;;;;20879943;28;20435;-45
2022/01/06 00:53:56;;;;;;;2.92;0.50;;;3.80;99.90;;;;;;20881389;28;20088;-45
2022/01/06 01:03:57;;;;;;;0.40;0.10;;;3.70;99.90;;;;;;20859712;28;20131;-45
2022/01/06 01:14:16;;;;;;;1.35;0.10;;;3.60;99.90;;;;;;20900365;28;20504;-45
2022/01/06 01:24:17;;;;;;;1.08;0.45;;;3.30;99.90;;;;;;20880517;28;20043;-45
2022/01/06 01:34:23;;;;;;;1.50;0.17;;;3.10;99.90;;;;;;20886162;28;20345;-45
2022/01/06 01:44:24;;;;;;;2.13;0.40;;;2.90;99.90;;;;;;20881072;28;20045;-44
2022/01/06 01:54:26;;;;;;;1.35;0.38;;;2.70;99.90;;;;;;20877010;28;20045;-45
2022/01/06 02:04:27;;;;;;;2.20;0.50;;;3.10;99.90;;;;;;20877457;28;20037;-45
2022/01/06 02:14:29;;;;;;;6.53;0.45;;;3.50;99.90;;;;;;20863571;28;20045;-45
2022/01/06 02:24:30;;;;;;;2.38;0.20;;;3.80;99.90;;;;;;20872283;28;20504;-45
2022/01/06 02:34:31;;;;;;;1.75;1.30;;;4.00;99.90;;;;;;20883458;28;20049;-45
2022/01/06 02:44:33;;;;;;;2.08;0.28;;;3.90;99.90;;;;;;20892406;28;20029;-44
2022/01/06 02:54:34;;;;;;;2.25;1.02;;;3.60;99.90;;;;;;20887031;28;20517;-45
2022/01/06 03:04:35;;;;;;;2.92;0.50;;;3.50;99.90;;;;;;20873105;28;20052;-44
2022/01/06 03:14:37;;;;;;;2.17;0.20;;;3.30;99.90;;;;;;20869579;28;20040;-45
2022/01/06 03:24:38;;;;;;;1.90;0.20;;;3.10;99.90;;;;;;20892466;28;20064;-45
2022/01/06 03:34:40;;;;;;;1.30;0.45;;;2.90;99.90;;;;;;20885020;28;20504;-45
2022/01/06 03:44:42;;;;;;;3.38;0.10;;;2.70;99.90;;;;;;20891973;28;20040;-45
2022/01/06 03:54:43;;;;;;;1.52;0.20;;;2.60;99.90;;;;;;20890167;28;20060;-45
2022/01/06 04:04:44;;;;;;;0.73;0.20;;;2.40;99.90;;;;;;20896238;28;20043;-45
2022/01/06 04:14:46;;;;;;;0.38;0.17;;;2.40;99.90;;;;;;20874790;28;20433;-45
2022/01/06 04:24:47;;;;;;;0.55;0.20;;;2.40;99.90;;;;;;20882314;28;20036;-45
2022/01/06 04:34:48;;;;;;;2.63;0.40;;;2.30;99.90;;;;;;20876729;28;20037;-45
2022/01/06 04:44:49;;;;;;;0.35;0.22;;;2.20;99.90;;;;;;20885860;28;20037;-45
2022/01/06 04:54:51;;;;;;;0.22;0.00;;;2.20;99.90;;;;;;20883900;28;20052;-45
2022/01/06 05:04:52;;;;;;;3.88;0.95;;;2.10;99.90;;;;;;20882123;28;20485;-45
2022/01/06 05:14:53;;;;;;;0.08;0.05;;;1.90;99.90;;;;;;20875146;28;20052;-45
2022/01/06 05:24:54;;;;;;;5.40;0.40;;;1.90;99.90;;;;;;20876145;28;20044;-45
2022/01/06 05:34:55;;;;;;;1.02;0.17;;;1.90;99.90;;;;;;20893048;28;20041;-45
2022/01/06 05:44:56;;;;;;;0.15;0.03;;;1.80;99.90;;;;;;20898507;28;20028;-45
2022/01/06 05:54:57;;;;;;;6.18;1.40;;;1.70;99.90;;;;;;20897439;28;20051;-45
2022/01/06 06:04:58;;;;;;;0.52;0.08;;;1.70;99.90;;;;;;20889745;28;20477;-45
2022/01/06 06:14:59;;;;;;;0.38;0.10;;;1.70;99.90;;;;;;20892249;28;20044;-45
2022/01/06 06:25:00;;;;;;;2.60;0.47;;;1.70;99.90;;;;;;20915352;28;20047;-45
2022/01/06 06:35:03;;;;;;;0.98;0.15;;;1.70;99.90;;;;;;20876892;28;20052;-45
2022/01/06 06:45:05;;;;;;;1.27;0.20;;;1.70;99.90;;;;;;20882842;28;20029;-45
2022/01/06 06:55:07;;;;;;;2.40;0.20;;;1.60;99.90;;;;;;20873972;28;20057;-45
2022/01/06 07:05:09;;;;;;;0.68;0.32;;;1.60;99.90;;;;;;20887374;28;20519;-45
2022/01/06 07:15:13;;;;;;;8.60;1.95;;;1.70;99.90;;;;;;20875099;28;20061;-45
2022/01/06 07:25:16;;;;;;;0.17;0.08;;;1.90;99.90;;;;;;20895227;28;20041;-45
2022/01/06 07:35:21;;;;;;;0.85;0.30;;;2.00;99.90;;;;;;20887935;28;20048;-45
2022/01/06 07:45:22;;;;;;;2.92;0.22;;;2.10;99.90;;;;;;20889790;28;20270;-45
2022/01/06 07:55:23;;;;;;;0.40;0.20;;;2.30;99.90;;;;;;20886098;28;20075;-45
2022/01/06 08:05:26;;;;;;;0.80;0.30;;;2.30;99.90;;;;;;20896778;28;20045;-45
2022/01/06 08:15:27;;;;;;;0.77;0.20;;;2.40;99.90;;;;;;20896804;28;20053;-45
2022/01/06 08:25:29;;;;;;;1.70;0.22;;;2.30;99.90;;;;;;20892572;28;20511;-45
2022/01/06 08:35:30;;;;;;;1.40;0.25;;;2.20;99.90;;;;;;20902237;28;20560;-45
2022/01/06 08:45:32;;;;;;;0.73;0.25;;;2.30;99.90;;;;;;20886209;28;20037;-45
2022/01/06 08:55:35;;;;;;;4.05;0.95;;;2.30;99.90;;;;;;20878574;28;20041;-45
2022/01/06 09:05:37;;;;;;;1.50;0.63;;;2.30;99.90;;;;;;20833424;28;20048;-45
2022/01/06 09:15:38;;;;;;;4.03;0.88;;;2.50;99.90;;;;;;20880755;28;20717;-45
2022/01/06 09:25:39;;;;;;;1.83;0.50;;;2.80;99.90;;;;;;20858025;28;20049;-45
2022/01/06 09:35:40;;;;;;;2.38;0.60;;;3.20;99.90;;;;;;20857508;28;20116;-45
2022/01/06 09:45:42;;;;;;;2.67;0.85;;;3.50;99.90;;;;;;20877031;28;20044;-45
2022/01/06 09:55:43;;;;;;;1.35;0.70;;;3.80;99.90;;;;;;20863705;28;20058;-45
2022/01/06 10:05:49;;;;;;;2.88;1.20;;;4.10;99.90;;;;;;20877247;28;20033;-45
2022/01/06 10:15:50;;;;;;;5.40;1.38;;;4.30;99.90;;;;;;20884176;28;20390;-45
2022/01/06 10:25:51;;;;;;;2.60;0.65;;;4.60;99.90;;;;;;20885199;28;20122;-45
2022/01/06 10:36:07;;;;;;;3.38;1.00;;;5.00;99.90;;;;;;20877521;28;20044;-45
2022/01/06 10:46:08;;;;;;;2.22;0.85;;;5.50;99.90;;;;;;20882891;28;20037;-45
2022/01/06 10:56:16;;;;;;;1.80;0.90;;;5.80;99.90;;;;;;20877571;28;20045;-45
2022/01/06 11:06:18;;;;;;;1.50;0.90;;;6.20;99.90;;;;;;20899406;28;20607;-45
2022/01/06 11:16:20;;;;;;;2.22;0.60;;;6.70;99.90;;;;;;20894783;28;20041;-45
2022/01/06 11:26:22;;;;;;;3.88;0.90;;;7.10;99.90;;;;;;20893737;28;20044;-45
2022/01/06 11:36:32;;;;;;;2.55;0.88;;;6.80;99.90;;;;;;20901494;28;20041;-45
2022/01/06 11:46:44;;;;;;;3.72;1.02;;;6.50;99.90;;;;;;20881486;28;20044;-45
2022/01/06 11:56:49;;;;;;;3.92;1.08;;;6.40;99.90;;;;;;20905128;28;20040;-45
2022/01/06 12:07:02;;;;;;;4.78;1.10;;;6.50;99.90;;;;;;20899050;28;20052;-45
2022/01/06 12:17:11;;;;;;;5.32;0.77;;;6.70;99.90;;;;;;20895032;28;20040;-45
2022/01/06 12:27:12;;;;;;;3.72;0.60;;;7.00;99.90;;;;;;20903754;28;20047;-45
2022/01/06 12:37:13;;;;;;;3.70;1.55;;;6.90;99.90;;;;;;20891460;28;20086;-45
2022/01/06 12:47:15;;;;;;;3.85;0.70;;;6.50;99.90;;;;;;20903784;28;20063;-45
2022/01/06 12:57:16;;;;;;;2.60;0.73;;;6.50;99.90;;;;;;20891273;28;20037;-45
2022/01/06 13:07:18;;;;;;;3.05;0.30;;;6.40;99.90;;;;;;20883416;28;20048;-45
2022/01/06 13:17:25;;;;;;;0.85;0.35;;;6.30;99.90;;;;;;20885736;28;23427;-45
2022/01/06 13:27:26;;;;;;;2.95;1.17;;;6.20;99.90;;;;;;20889085;28;20045;-45
2022/01/06 13:37:29;;;;;;;0.80;0.20;;;6.20;99.90;;;;;;20887021;28;20114;-45
2022/01/06 13:57:52;;;;;;;1.88;0.50;;;7.00;99.90;;;;;;20870125;28;20530;-45
2022/01/06 14:07:53;;;;;;;4.32;0.57;;;7.00;99.90;;;;;;20882821;28;20072;-45
2022/01/06 14:17:56;;;;;;;1.23;0.38;;;6.80;99.90;;;;;;20889322;28;20048;-46
2022/01/06 14:27:58;;;;;;;4.43;0.40;;;6.60;99.90;;;;;;20883652;28;20055;-45
2022/01/06 14:37:59;;;;;;;10.18;0.75;;;6.40;99.90;;;;;;20850896;28;20044;-45
2022/01/06 14:48:01;;;;;;;7.82;0.75;;;6.30;99.90;;;;;;20875336;28;20524;-45
2022/01/06 14:58:04;;;;;;;3.95;1.20;;;6.20;99.90;;;;;;20861148;28;20056;-45
2022/01/06 15:08:05;;;;;;;4.88;0.82;;;6.00;99.90;;;;;;20874908;28;20036;-45
2022/01/06 15:18:08;;;;;;;2.05;0.52;;;5.90;99.90;;;;;;20872595;28;20530;-45
2022/01/06 15:28:09;;;;;;;3.42;0.77;;;5.80;99.90;;;;;;20827835;28;20486;-45
2022/01/06 15:38:10;;;;;;;2.83;0.50;;;5.60;99.90;;;;;;20867718;28;20067;-45
2022/01/06 15:48:12;;;;;;;8.18;1.48;;;5.40;99.90;;;;;;20845855;28;20045;-45
2022/01/06 15:58:14;;;;;;;1.80;0.73;;;5.20;99.90;;;;;;20882931;28;20051;-45
2022/01/06 16:08:16;;;;;;;3.83;0.55;;;5.00;99.90;;;;;;20875287;28;20044;-45
2022/01/06 16:18:18;;;;;;;0.68;0.30;;;4.90;99.90;;;;;;20880510;28;20070;-45
2022/01/06 16:28:19;;;;;;;3.40;0.98;;;4.80;99.90;;;;;;20966665;28;20036;-45
2022/01/06 16:38:22;;;;;;;1.13;0.60;;;4.70;99.90;;;;;;20942006;28;20047;-45
2022/01/06 16:48:24;;;;;;;2.88;1.25;;;4.60;99.90;;;;;;20958611;28;20040;-45
2022/01/06 16:58:27;;;;;;;3.63;0.90;;;4.60;99.90;;;;;;20946444;28;20037;-45
2022/01/06 17:08:28;;;;;;;7.18;1.55;;;4.60;99.90;;;;;;20954792;28;20037;-46
2022/01/06 17:18:29;;;;;;;5.55;1.88;;;4.70;99.90;;;;;;20946736;28;20041;-45
2022/01/06 17:28:30;;;;;;;4.00;1.60;;;4.60;99.90;;;;;;20949396;28;20037;-46
2022/01/06 17:38:31;;;;;;;7.13;1.92;;;4.60;99.90;;;;;;20964522;28;20389;-46
2022/01/06 17:48:32;;;;;;;4.07;1.65;;;4.70;99.90;;;;;;20922037;28;20067;-45
2022/01/06 17:58:34;;;;;;;8.95;1.98;;;4.70;99.90;;;;;;20937941;28;20268;-45
2022/01/06 18:18:36;;;;;;;6.93;1.52;;;4.50;99.90;;;;;;20911771;28;20040;-45
2022/01/06 18:28:37;;;;;;;4.43;1.50;;;4.50;99.90;;;;;;20899721;28;20049;-45
2022/01/06 18:38:44;;;;;;;5.15;1.85;;;4.60;99.90;;;;;;20940839;28;20037;-45
2022/01/06 18:48:45;;;;;;;5.63;2.25;;;4.50;99.90;;;;;;20935101;28;20032;-45
2022/01/06 18:58:46;;;;;;;4.53;1.70;;;4.50;99.90;;;;;;20947223;28;20424;-45
2022/01/06 19:08:47;;;;;;;9.88;1.52;;;4.50;99.90;;;;;;20912858;28;20048;-45
2022/01/06 19:18:48;;;;;;;9.32;2.13;;;4.50;99.90;;;;;;20955265;28;20045;-45
2022/01/06 19:28:51;;;;;;;3.85;1.38;;;4.50;99.90;;;;;;20959556;28;20284;-46
2022/01/06 19:38:52;;;;;;;2.35;1.13;;;4.50;99.90;;;;;;20957093;28;20055;-45
2022/01/06 19:48:53;;;;;;;2.88;1.13;;;4.50;99.90;;;;;;20946447;28;20064;-45
2022/01/06 19:58:55;;;;;;;7.68;2.33;;;4.50;99.90;;;;;;20946055;28;20048;-45
2022/01/06 20:08:56;;;;;;;5.88;1.13;;;4.40;99.90;;;;;;20932361;28;20064;-46
2022/01/06 20:18:58;;;;;;;7.28;1.73;;;4.50;99.90;;;;;;20946558;28;20059;-45
2022/01/06 20:29:00;;;;;;;6.75;1.17;;;4.40;99.90;;;;;;20956269;28;20044;-46
2022/01/06 20:39:01;;;;;;;4.30;1.35;;;4.50;99.90;;;;;;20947905;28;20414;-45
2022/01/06 20:59:22;;;;;;;5.95;1.38;;;4.50;99.90;;;;;;20953139;28;20175;-45
2022/01/06 21:09:23;;;;;;;5.05;1.42;;;4.60;99.90;;;;;;20947253;28;20542;-45
2022/01/06 21:19:24;;;;;;;5.30;2.08;;;4.60;99.90;;;;;;20945613;28;20055;-45
2022/01/06 21:29:26;;;;;;;4.43;1.50;;;4.60;99.90;;;;;;20931288;28;20036;-46
2022/01/06 21:39:27;;;;;;;6.15;1.65;;;4.60;99.90;;;;;;20943030;28;20080;-45
2022/01/06 21:49:28;;;;;;;3.80;1.58;;;4.60;99.90;;;;;;20930044;28;20522;-46
2022/01/06 21:59:30;;;;;;;7.03;2.45;;;4.60;99.90;;;;;;20902412;28;20044;-45
2022/01/06 22:09:31;;;;;;;6.28;1.90;;;4.60;99.90;;;;;;20920897;28;20049;-45
2022/01/06 22:19:32;;;;;;;4.95;1.33;;;4.50;99.90;;;;;;20919554;28;20052;-45
2022/01/06 22:29:33;;;;;;;5.63;1.52;;;4.50;99.90;;;;;;20918132;28;20048;-45
2022/01/06 22:39:34;;;;;;;5.28;1.75;;;4.60;99.90;;;;;;20920268;28;20052;-45
2022/01/06 22:49:35;;;;;;;6.35;2.42;;;4.60;99.90;;;;;;20917461;28;20146;-45
2022/01/06 22:59:38;;;;;;;3.92;1.40;;;4.70;99.90;;;;;;20940212;28;20687;-45
2022/01/06 23:09:39;;;;;;;3.58;1.25;;;4.70;99.90;;;;;;20931252;28;20036;-45
2022/01/06 23:19:41;;;;;;;4.20;1.33;;;4.80;99.90;;;;;;20939018;28;20515;-45
2022/01/06 23:29:43;;;;;;;3.97;1.13;;;4.70;99.90;;;;;;20929631;28;20400;-45
2022/01/06 23:39:44;;;;;;;1.52;1.08;;;4.60;99.90;;;;;;20935179;28;20053;-45
2022/01/06 23:49:45;;;;;;;2.97;1.25;;;4.50;99.90;;;;;;20935505;28;20551;-45
2022/01/06 23:59:46;;;;;;;2.80;0.95;;;4.20;99.90;;;;;;20932676;28;20045;-45
